Weer

Current Metar

EHAM: EHAM 231625Z 08005KT 060V120 CAVOK 25/09 Q1024 NOSIG
EHRD: EHRD 231625Z AUTO 05005KT 9999 NSC 24/12 Q1024 NOSIG
EHGG: EHGG 231625Z AUTO 01005KT 350V050 9999 NSC 24/16 Q1025 NOSIG
EHEH: EHEH 231625Z AUTO 04007KT 360V100 9999 BKN360 26/11 Q1023 BLU 03005KT CAVOK
EHBK: EHBK 231625Z AUTO 04008KT 9999 NSC 25/12 Q1023 NOSIG

Search METAR


Wind Charts

+ 0600h
FL100 FL180 FL240 FL300 FL340

+ 1200h
FL100 FL180 FL240 FL300 FL340

+ 1800h
FL100 FL180 FL240 FL300 FL340

+ 2400h
FL100 FL180 FL240 FL300 FL340

Europe & Africa charts only, updated daily.

 

Weather Services

MET Office